TFM - Tactical Decision Aid
ID: Runway Winds: CIG/VIS Threshold:

KCLT - Charlotte/Douglas In, NC, US

Updated at: 1806 UTC 23 Apr 2019
Latest TAF at: 1724 UTC 23 Apr 2019

TAF Board

Time1752Z 23/19Z 23/20Z 23/21Z 23/22Z 23/23Z 24/00Z 24/01Z 24/02Z 24/03Z 24/04Z 24/05Z 24/06Z 24/07Z>>
Type OBS PRVL PRVL PRVL PRVL PRVL PRVL PRVL PRVL PRVL PRVL PRVL PRVL PRVL
VIS 10 >6 >6 >6 >6 >6 >6 >6 >6 >6 >6 >6 >6 >6
CIG -- -- -- -- -- -- -- -- -- -- -- -- -- --
Cover FEW FEW FEW FEW FEW FEW FEW FEW FEW SCT SCT SCT SCT SCT
FltCat VFR VFR VFR VFR VFR VFR VFR VFR VFR VFR VFR VFR VFR VFR
WX -- -- -- -- -- -- -- -- -- -- -- -- -- --
WDir 240 210 210 210 210 210 210 210 210 240 240 240 240 240
WSpd 7 8 8 8 8 8 8 8 8 5 5 5 5 5
WGst -- -- -- -- -- -- -- -- -- -- -- -- -- --

TDA Impact Legend

  None Marginal Slight Moderate High
Visibility (sm) >5 3≤X≤5 1≤X<3 0.5≤X<1 <0.5
Ceiling (100 ft) >30 10≤X≤30 4≤X<10 2≤X<4 <2
Wind Speed (kt) <15 15≤X<25 25≤X<30 ≥30
Wind Gust (kt) <15 15≤X<25 25≤X<35 ≥35
Weather No Wx Reported VCTS -TS,-FZRA TS,FZRA +TS,+FZRA
TAF
KCLT 231724Z 2318/2424 21008KT P6SM FEW250
  FM240300 24005KT P6SM SCT250
  FM240800 29003KT P6SM SCT200
  FM241700 24009KT P6SM FEW200


METAR
KCLT 231752Z 24007KT 10SM FEW250 28/11 A3005 RMK AO2 SLP170 T02830111 10283 20150 58020
KCLT 231652Z 18007KT 10SM FEW250 27/12 A3008 RMK AO2 SLP181 T02670122
KCLT 231552Z 17004KT 10SM SCT250 25/12 A3010 RMK AO2 SLP187 T02500117
KCLT 231452Z 23003KT 10SM BKN250 23/13 A3011 RMK AO2 SLP190 T02330128 58003

Radar Display
Forecast Discussion